Time;durP1;ratioP1;P1;durP2;ratioP2;P2;SDS_P1;SDS_P2;PMS_P1;PMS_P2;Temp;Humidity;BMP_temperature;BMP_pressure;BME280_temperature;BME280_humidity;BME280_pressure;Samples;Min_cycle;Max_cycle;Signal;HPM_P1;HPM_P2
2022/11/26 00:00:57;;;;;;;16.67;5.77;;;10.30;99.90;;;;;;5055407;28;20436;-66
2022/11/26 00:03:22;;;;;;;14.00;5.90;;;10.30;99.90;;;;;;5054513;28;20308;-66
2022/11/26 00:05:51;;;;;;;18.47;6.80;;;10.30;99.90;;;;;;5055416;28;20186;-66
2022/11/26 00:08:42;;;;;;;8.93;5.70;;;10.30;99.90;;;;;;5052452;28;20188;-66
2022/11/26 00:11:12;;;;;;;13.47;6.33;;;10.20;99.90;;;;;;5052290;28;20449;-65
2022/11/26 00:13:37;;;;;;;10.90;5.93;;;10.10;99.90;;;;;;5041012;28;21010;-68
2022/11/26 00:16:03;;;;;;;13.80;5.90;;;10.10;99.90;;;;;;5057990;28;20441;-69
2022/11/26 00:18:29;;;;;;;14.17;6.20;;;10.10;99.90;;;;;;5056764;28;20183;-67
2022/11/26 00:20:58;;;;;;;16.83;6.57;;;10.20;99.90;;;;;;5059825;28;20187;-67
2022/11/26 00:23:26;;;;;;;14.13;5.53;;;10.10;99.90;;;;;;5055514;28;20219;-66
2022/11/26 00:25:55;;;;;;;11.10;5.70;;;10.10;99.90;;;;;;5057074;28;20433;-67
2022/11/26 00:28:31;;;;;;;9.13;6.67;;;10.10;99.90;;;;;;5057622;28;20447;-67
2022/11/26 00:31:00;;;;;;;11.03;5.97;;;10.20;99.90;;;;;;5059345;28;20429;-67
2022/11/26 00:33:27;;;;;;;8.93;5.83;;;10.10;99.90;;;;;;5054244;28;20516;-67
2022/11/26 00:36:00;;;;;;;14.10;6.57;;;10.00;99.90;;;;;;5055487;28;20429;-67
2022/11/26 00:38:26;;;;;;;9.63;5.97;;;10.00;99.90;;;;;;5055187;28;20433;-67
2022/11/26 00:40:52;;;;;;;19.40;6.70;;;10.10;99.90;;;;;;5054624;28;20810;-67
2022/11/26 00:43:18;;;;;;;14.83;6.17;;;10.10;99.90;;;;;;5057059;28;20460;-67
2022/11/26 00:45:44;;;;;;;15.20;6.80;;;10.00;99.90;;;;;;5057954;28;20183;-66
2022/11/26 00:48:09;;;;;;;19.07;6.00;;;10.10;99.90;;;;;;5056880;28;20186;-66
2022/11/26 00:50:46;;;;;;;12.23;6.17;;;10.10;99.90;;;;;;5057104;28;20264;-67
2022/11/26 00:53:14;;;;;;;20.53;6.33;;;10.10;99.90;;;;;;5057375;28;20214;-67
2022/11/26 00:55:43;;;;;;;15.83;5.53;;;10.20;99.90;;;;;;5054620;28;20932;-66
2022/11/26 00:58:21;;;;;;;12.83;6.40;;;10.10;99.90;;;;;;5053601;28;20445;-67
2022/11/26 01:00:47;;;;;;;9.07;5.57;;;10.20;99.90;;;;;;5054834;28;21140;-67
2022/11/26 01:03:12;;;;;;;12.83;5.90;;;10.20;99.90;;;;;;5055996;28;20540;-67
2022/11/26 01:05:38;;;;;;;13.10;6.27;;;10.20;99.90;;;;;;5057817;28;20188;-67
2022/11/26 01:08:33;;;;;;;10.03;6.00;;;10.20;99.90;;;;;;5054782;28;20183;-67
2022/11/26 01:11:01;;;;;;;10.00;5.53;;;10.20;99.90;;;;;;5053950;28;20242;-67
2022/11/26 01:13:27;;;;;;;9.60;5.40;;;10.20;99.90;;;;;;5054034;28;20472;-66
2022/11/26 01:15:57;;;;;;;14.13;5.40;;;10.20;99.90;;;;;;5052401;28;20516;-66
2022/11/26 01:18:24;;;;;;;11.30;5.93;;;10.20;99.90;;;;;;5055657;28;20540;-66
2022/11/26 01:20:50;;;;;;;8.67;5.77;;;10.20;99.90;;;;;;5055134;28;20454;-66
2022/11/26 01:23:17;;;;;;;17.60;6.43;;;10.20;99.90;;;;;;5053291;28;20908;-66
2022/11/26 01:25:42;;;;;;;16.00;5.60;;;10.10;99.90;;;;;;5057587;28;20437;-65
2022/11/26 01:28:17;;;;;;;11.80;5.80;;;10.10;99.90;;;;;;5058274;28;20436;-66
2022/11/26 01:30:43;;;;;;;16.83;5.77;;;10.20;99.90;;;;;;5056666;28;21165;-66
2022/11/26 01:33:09;;;;;;;9.37;6.53;;;10.20;99.90;;;;;;5056352;28;21130;-66
2022/11/26 01:35:36;;;;;;;13.97;6.17;;;10.10;99.90;;;;;;5060846;28;20441;-66
2022/11/26 01:38:02;;;;;;;12.60;5.67;;;10.10;99.90;;;;;;5057857;28;20186;-67
2022/11/26 01:40:43;;;;;;;10.20;5.17;;;10.10;99.90;;;;;;5055743;28;20452;-66
2022/11/26 01:43:30;;;;;;;13.93;6.63;;;10.10;99.90;;;;;;5056073;28;20961;-66
2022/11/26 01:45:56;;;;;;;13.50;6.40;;;10.10;99.90;;;;;;5056125;28;20453;-67
2022/11/26 01:48:30;;;;;;;18.50;7.67;;;10.10;99.90;;;;;;5056083;28;20433;-67
2022/11/26 01:51:06;;;;;;;9.10;5.67;;;10.10;99.90;;;;;;5060544;28;20909;-67
2022/11/26 01:53:43;;;;;;;11.33;6.57;;;10.10;99.90;;;;;;5055079;28;20562;-67
2022/11/26 01:56:27;;;;;;;11.63;6.40;;;10.00;99.90;;;;;;5056710;28;20472;-66
2022/11/26 01:58:59;;;;;;;15.47;6.67;;;10.00;99.90;;;;;;5055976;28;20434;-67
2022/11/26 02:01:24;;;;;;;11.40;6.20;;;10.00;99.90;;;;;;5055807;28;20438;-67
2022/11/26 02:04:11;;;;;;;13.67;6.60;;;9.90;99.90;;;;;;5041396;28;20959;-67
2022/11/26 02:06:37;;;;;;;10.87;6.67;;;10.00;99.90;;;;;;5055690;28;20187;-66
2022/11/26 02:09:06;;;;;;;8.97;5.97;;;10.00;99.90;;;;;;5056620;28;20949;-67
2022/11/26 02:11:32;;;;;;;20.60;7.50;;;10.00;99.90;;;;;;5041893;28;21215;-66
2022/11/26 02:14:19;;;;;;;15.63;6.00;;;10.00;99.90;;;;;;5058255;28;20476;-67
2022/11/26 02:17:13;;;;;;;11.77;6.47;;;10.00;99.90;;;;;;5056762;28;20848;-67
2022/11/26 02:20:16;;;;;;;13.20;6.37;;;10.00;99.90;;;;;;5057796;28;20468;-67
2022/11/26 02:23:12;;;;;;;17.27;6.30;;;10.00;99.90;;;;;;5058629;28;20510;-66
2022/11/26 02:25:40;;;;;;;12.57;6.20;;;9.90;99.90;;;;;;5057957;28;20437;-66
2022/11/26 02:28:24;;;;;;;13.93;6.67;;;9.90;99.90;;;;;;5060104;28;20433;-67
2022/11/26 02:31:04;;;;;;;13.43;7.30;;;9.80;99.90;;;;;;5060509;28;20474;-67
2022/11/26 02:33:40;;;;;;;16.00;6.20;;;9.80;99.90;;;;;;5055599;28;20473;-67
2022/11/26 02:36:16;;;;;;;10.40;5.60;;;9.90;99.90;;;;;;5057744;28;20432;-67
2022/11/26 02:38:42;;;;;;;13.00;7.00;;;9.90;99.90;;;;;;5055764;28;20441;-67
2022/11/26 02:41:08;;;;;;;16.07;6.20;;;9.80;99.90;;;;;;5053576;28;20441;-67
2022/11/26 02:43:36;;;;;;;22.90;7.30;;;9.80;99.90;;;;;;5059594;28;20307;-67
2022/11/26 02:46:08;;;;;;;10.20;6.60;;;9.80;99.90;;;;;;5060408;28;20193;-67
2022/11/26 02:48:40;;;;;;;10.77;6.00;;;9.80;99.90;;;;;;5059993;28;20429;-67
2022/11/26 02:51:19;;;;;;;13.60;6.17;;;9.80;99.90;;;;;;5063808;28;20413;-67
2022/11/26 02:53:47;;;;;;;18.10;6.30;;;9.80;99.90;;;;;;5061290;28;20469;-67
2022/11/26 02:56:20;;;;;;;14.83;6.30;;;9.90;99.90;;;;;;5060536;28;20511;-67
2022/11/26 02:58:47;;;;;;;11.53;5.60;;;9.80;99.90;;;;;;5062164;28;20833;-67
2022/11/26 03:01:37;;;;;;;16.97;7.07;;;9.90;99.90;;;;;;5063239;28;20486;-67
2022/11/26 03:04:09;;;;;;;12.17;6.13;;;9.90;99.90;;;;;;5060898;28;21085;-67
2022/11/26 03:06:35;;;;;;;15.27;6.67;;;10.00;99.90;;;;;;5059976;28;20441;-67
2022/11/26 03:09:01;;;;;;;17.07;6.47;;;10.00;99.90;;;;;;5062188;28;20513;-67
2022/11/26 03:11:27;;;;;;;14.60;6.20;;;10.00;99.90;;;;;;5060299;28;20651;-68
2022/11/26 03:13:53;;;;;;;14.00;6.40;;;9.90;99.90;;;;;;5063575;28;20246;-67
2022/11/26 03:16:19;;;;;;;14.73;6.00;;;9.90;99.90;;;;;;5063987;28;20446;-66
2022/11/26 03:18:44;;;;;;;15.43;6.17;;;9.90;99.90;;;;;;5057999;28;20245;-66
2022/11/26 03:21:10;;;;;;;10.87;5.53;;;9.80;99.90;;;;;;5055670;28;20183;-67
2022/11/26 03:23:35;;;;;;;9.60;6.70;;;9.80;99.90;;;;;;5059460;28;20214;-67
2022/11/26 03:26:01;;;;;;;12.00;5.60;;;9.80;99.90;;;;;;5061865;28;20672;-67
2022/11/26 03:28:27;;;;;;;15.80;7.00;;;9.80;99.90;;;;;;5058208;28;20187;-66
2022/11/26 03:30:52;;;;;;;13.87;6.13;;;9.80;99.90;;;;;;5062383;28;20175;-67
2022/11/26 03:33:18;;;;;;;17.00;6.30;;;9.80;99.90;;;;;;5057054;28;20211;-66
2022/11/26 03:35:46;;;;;;;11.50;5.63;;;9.90;99.90;;;;;;5061422;28;20274;-66
2022/11/26 03:38:11;;;;;;;14.13;6.30;;;9.90;99.90;;;;;;5061665;28;20641;-66
2022/11/26 03:40:37;;;;;;;9.93;6.53;;;9.90;99.90;;;;;;5063158;28;20418;-66
2022/11/26 03:43:02;;;;;;;19.70;7.60;;;9.80;99.90;;;;;;5059379;28;20245;-67
2022/11/26 03:45:28;;;;;;;12.40;5.90;;;9.80;99.90;;;;;;5059060;28;20179;-67
2022/11/26 03:47:53;;;;;;;10.63;6.57;;;9.80;99.90;;;;;;5062384;28;20179;-66
2022/11/26 03:50:19;;;;;;;14.60;6.47;;;9.80;99.90;;;;;;5057746;28;20206;-67
2022/11/26 03:52:44;;;;;;;15.57;6.83;;;9.80;99.90;;;;;;5055208;28;20184;-67
2022/11/26 03:55:10;;;;;;;14.00;7.07;;;9.70;99.90;;;;;;5061799;28;20667;-67
2022/11/26 03:57:37;;;;;;;12.70;6.37;;;9.80;99.90;;;;;;5052823;28;20579;-67
2022/11/26 04:00:05;;;;;;;16.03;6.47;;;9.80;99.90;;;;;;5062721;28;20183;-67
2022/11/26 04:02:31;;;;;;;9.03;5.50;;;9.80;99.90;;;;;;5057950;28;20426;-67
2022/11/26 04:04:57;;;;;;;15.53;6.50;;;9.80;99.90;;;;;;5062307;28;20846;-67
2022/11/26 04:07:23;;;;;;;16.53;7.60;;;9.80;99.90;;;;;;5056162;28;20592;-67
2022/11/26 04:09:49;;;;;;;14.80;7.10;;;9.90;99.90;;;;;;5059421;28;20441;-67
2022/11/26 04:12:14;;;;;;;12.57;6.90;;;9.80;99.90;;;;;;5059680;28;20183;-67
2022/11/26 04:14:40;;;;;;;18.73;7.10;;;9.80;99.90;;;;;;5058405;28;20219;-67
2022/11/26 04:17:05;;;;;;;21.80;7.37;;;9.80;99.90;;;;;;5062356;28;20185;-67
2022/11/26 04:19:31;;;;;;;15.03;6.23;;;9.80;99.90;;;;;;5062623;28;20187;-67
2022/11/26 04:21:56;;;;;;;13.00;6.27;;;9.80;99.90;;;;;;5060956;28;20660;-67
2022/11/26 04:24:22;;;;;;;14.30;6.50;;;9.80;99.90;;;;;;5061339;28;20206;-67
2022/11/26 04:26:47;;;;;;;11.20;6.40;;;9.80;99.90;;;;;;5044329;28;20765;-67
2022/11/26 04:29:13;;;;;;;10.27;6.27;;;9.80;99.90;;;;;;5061072;28;20179;-67
2022/11/26 04:31:39;;;;;;;18.03;6.80;;;9.70;99.90;;;;;;5058343;28;20874;-67
2022/11/26 04:34:04;;;;;;;14.37;6.97;;;9.70;99.90;;;;;;5060628;28;20249;-67
2022/11/26 04:36:30;;;;;;;16.07;6.40;;;9.70;99.90;;;;;;5060680;28;20184;-67
2022/11/26 04:38:57;;;;;;;18.27;7.23;;;9.70;99.90;;;;;;5060345;28;20183;-67
2022/11/26 04:41:23;;;;;;;13.30;6.50;;;9.70;99.90;;;;;;5060333;28;20543;-67
2022/11/26 04:43:48;;;;;;;15.33;6.80;;;9.70;99.90;;;;;;5060160;28;20461;-67
2022/11/26 04:46:14;;;;;;;20.50;7.63;;;9.60;99.90;;;;;;5063037;28;20183;-67
2022/11/26 04:48:39;;;;;;;10.63;5.33;;;9.60;99.90;;;;;;5063597;28;20186;-67
2022/11/26 04:51:05;;;;;;;18.47;8.67;;;9.60;99.90;;;;;;5060336;28;20675;-66
2022/11/26 04:53:31;;;;;;;18.47;7.50;;;9.60;99.90;;;;;;5061874;28;20249;-68
2022/11/26 04:55:56;;;;;;;17.53;6.77;;;9.50;99.90;;;;;;5059867;28;20198;-68
2022/11/26 04:58:22;;;;;;;19.70;7.77;;;9.50;99.90;;;;;;5058660;28;20492;-67
2022/11/26 05:00:48;;;;;;;13.80;7.53;;;9.50;99.90;;;;;;5059840;28;20183;-67
2022/11/26 05:03:14;;;;;;;16.47;6.93;;;9.50;99.90;;;;;;5062155;28;20264;-68
2022/11/26 05:05:39;;;;;;;12.23;6.90;;;9.50;99.90;;;;;;5071400;22;20508;-72
2022/11/26 05:08:05;;;;;;;15.87;7.40;;;9.50;99.90;;;;;;5056569;28;20195;-72
2022/11/26 05:10:31;;;;;;;14.90;7.17;;;9.50;99.90;;;;;;5059454;28;20889;-73
2022/11/26 05:12:57;;;;;;;15.43;7.43;;;9.50;99.90;;;;;;5061185;28;20563;-73
2022/11/26 05:15:22;;;;;;;22.47;8.17;;;9.50;99.90;;;;;;5054852;28;20209;-73
2022/11/26 05:17:48;;;;;;;13.03;6.27;;;9.50;99.90;;;;;;5053225;28;20190;-73
2022/11/26 05:20:13;;;;;;;26.73;7.87;;;9.60;99.90;;;;;;5058557;28;20179;-73
2022/11/26 05:22:40;;;;;;;14.07;7.10;;;9.60;99.90;;;;;;5056698;28;20179;-73
2022/11/26 05:25:06;;;;;;;12.83;6.93;;;9.70;99.90;;;;;;5056267;28;20564;-73
2022/11/26 05:27:32;;;;;;;20.10;7.57;;;9.70;99.90;;;;;;5060027;28;20507;-73
2022/11/26 05:29:58;;;;;;;16.20;7.20;;;9.70;99.90;;;;;;5056136;28;20438;-73
2022/11/26 05:32:23;;;;;;;17.30;7.30;;;9.70;99.90;;;;;;5054118;28;20188;-73
2022/11/26 05:34:49;;;;;;;16.63;6.83;;;9.60;99.90;;;;;;5053956;28;20221;-72
2022/11/26 05:37:14;;;;;;;18.00;7.63;;;9.70;99.90;;;;;;5055246;28;20190;-72
2022/11/26 05:39:40;;;;;;;15.50;7.63;;;9.60;99.90;;;;;;5057354;28;21780;-72
2022/11/26 05:42:05;;;;;;;21.30;6.77;;;9.60;99.90;;;;;;5056184;28;20215;-72
2022/11/26 05:44:31;;;;;;;17.17;7.23;;;9.50;99.90;;;;;;5056144;28;20213;-72
2022/11/26 05:46:57;;;;;;;16.73;7.07;;;9.50;99.90;;;;;;5055863;28;20668;-72
2022/11/26 05:49:22;;;;;;;15.20;6.77;;;9.50;99.90;;;;;;5038748;28;20211;-72
2022/11/26 05:51:48;;;;;;;17.13;7.03;;;9.60;99.90;;;;;;5058627;28;20191;-72
2022/11/26 05:54:14;;;;;;;11.23;7.50;;;9.50;99.90;;;;;;5061275;28;20203;-72
2022/11/26 05:56:40;;;;;;;14.80;6.53;;;9.50;99.90;;;;;;5058975;28;20245;-71
2022/11/26 05:59:06;;;;;;;14.33;6.57;;;9.50;99.90;;;;;;5060959;28;20830;-72
2022/11/26 06:01:32;;;;;;;15.50;7.33;;;9.40;99.90;;;;;;5058434;28;20441;-71
2022/11/26 06:03:58;;;;;;;15.63;7.00;;;9.40;99.90;;;;;;5060102;28;20445;-72
2022/11/26 06:06:23;;;;;;;16.60;7.17;;;9.50;99.90;;;;;;5040537;28;20715;-71
2022/11/26 06:08:49;;;;;;;14.67;7.47;;;9.50;99.90;;;;;;5054340;28;20188;-72
2022/11/26 06:11:14;;;;;;;15.90;7.13;;;9.60;99.90;;;;;;5053784;28;20191;-72
2022/11/26 06:13:40;;;;;;;17.40;7.50;;;9.40;99.90;;;;;;5056749;28;20296;-73
2022/11/26 06:16:06;;;;;;;15.10;7.30;;;9.40;99.90;;;;;;5054244;28;20199;-73
2022/11/26 06:18:32;;;;;;;10.17;6.67;;;9.40;99.90;;;;;;5059591;28;20261;-73
2022/11/26 06:21:01;;;;;;;18.13;7.70;;;9.40;99.90;;;;;;5057495;28;20491;-73
2022/11/26 06:23:27;;;;;;;14.97;7.90;;;9.40;99.90;;;;;;5057899;28;20660;-73
2022/11/26 06:25:53;;;;;;;12.80;7.53;;;9.40;99.90;;;;;;5059029;28;20472;-73
2022/11/26 06:28:18;;;;;;;12.27;7.30;;;9.40;99.90;;;;;;5056970;28;20237;-73
2022/11/26 06:30:45;;;;;;;17.03;7.77;;;9.30;99.90;;;;;;5058899;28;20454;-73
2022/11/26 06:33:10;;;;;;;18.30;7.80;;;9.30;99.90;;;;;;5056954;28;20203;-73
2022/11/26 06:35:36;;;;;;;16.60;8.00;;;9.20;99.90;;;;;;5057648;28;20523;-73
2022/11/26 06:38:02;;;;;;;19.00;9.10;;;9.20;99.90;;;;;;5058115;28;20194;-74
2022/11/26 06:40:27;;;;;;;22.30;8.13;;;9.10;99.90;;;;;;5057443;28;20193;-73
2022/11/26 06:42:53;;;;;;;19.87;7.97;;;9.20;99.90;;;;;;5057221;28;20187;-73
2022/11/26 06:45:20;;;;;;;20.60;8.40;;;9.10;99.90;;;;;;5059032;28;20571;-72
2022/11/26 06:47:48;;;;;;;22.33;9.70;;;9.20;99.90;;;;;;5056261;28;20259;-73
2022/11/26 06:50:15;;;;;;;18.30;9.00;;;9.30;99.90;;;;;;5059823;28;20833;-73
2022/11/26 06:52:41;;;;;;;17.43;9.03;;;9.30;99.90;;;;;;5060347;28;20795;-73
2022/11/26 06:55:07;;;;;;;19.27;9.03;;;9.10;99.90;;;;;;5061631;28;20453;-72
2022/11/26 06:57:33;;;;;;;19.37;8.87;;;9.10;99.90;;;;;;5059579;28;21829;-72
2022/11/26 06:59:58;;;;;;;14.00;9.00;;;9.10;99.90;;;;;;5062010;28;20418;-72
2022/11/26 07:02:24;;;;;;;16.43;8.70;;;9.10;99.90;;;;;;5055780;28;20195;-73
2022/11/26 07:04:49;;;;;;;17.17;8.70;;;9.10;99.90;;;;;;5057176;28;20390;-71
2022/11/26 07:07:15;;;;;;;17.53;8.97;;;9.20;99.90;;;;;;5040808;28;20191;-71
2022/11/26 07:09:41;;;;;;;14.43;8.70;;;9.10;99.90;;;;;;5057874;28;20193;-72
2022/11/26 07:12:06;;;;;;;18.40;9.17;;;9.10;99.90;;;;;;5040477;28;20669;-72
2022/11/26 07:14:32;;;;;;;20.80;9.73;;;9.10;99.90;;;;;;5061547;28;20219;-72
2022/11/26 07:16:57;;;;;;;18.03;9.83;;;9.10;99.90;;;;;;5058159;28;20566;-73
2022/11/26 07:19:23;;;;;;;19.77;9.70;;;9.00;99.90;;;;;;5058944;28;20191;-72
2022/11/26 07:21:49;;;;;;;19.90;10.50;;;9.00;99.90;;;;;;5057781;28;20668;-72
2022/11/26 07:24:15;;;;;;;17.07;9.03;;;9.00;99.90;;;;;;5054556;28;20199;-75
2022/11/26 07:26:40;;;;;;;16.60;9.60;;;9.00;99.90;;;;;;5058065;28;20188;-74
2022/11/26 07:29:06;;;;;;;26.87;10.40;;;9.00;99.90;;;;;;5054106;28;20510;-73
2022/11/26 07:31:32;;;;;;;13.33;9.00;;;9.00;99.90;;;;;;5057047;28;20203;-73
2022/11/26 07:33:57;;;;;;;19.30;8.40;;;9.00;99.90;;;;;;5058209;28;20206;-73
2022/11/26 07:36:25;;;;;;;23.90;9.70;;;9.00;99.90;;;;;;5057749;28;20199;-73
2022/11/26 07:38:58;;;;;;;23.03;9.73;;;9.20;99.90;;;;;;5040571;28;20179;-74
2022/11/26 07:41:24;;;;;;;15.07;8.80;;;9.10;99.90;;;;;;5059709;28;20931;-74
2022/11/26 07:43:50;;;;;;;25.23;10.87;;;9.00;99.90;;;;;;5058325;28;20437;-74
2022/11/26 07:46:20;;;;;;;18.53;9.47;;;9.00;99.90;;;;;;5058921;28;20796;-74
2022/11/26 07:48:46;;;;;;;18.50;9.10;;;8.90;99.90;;;;;;5037222;28;20494;-74
2022/11/26 07:51:20;;;;;;;19.27;9.57;;;8.90;99.90;;;;;;5060278;28;20908;-74
2022/11/26 07:53:47;;;;;;;22.97;9.87;;;9.00;99.90;;;;;;5059701;28;20548;-73
2022/11/26 07:56:13;;;;;;;21.73;10.87;;;9.00;99.90;;;;;;5057864;28;20449;-73
2022/11/26 07:58:39;;;;;;;21.50;9.37;;;8.90;99.90;;;;;;5059517;28;20509;-74
2022/11/26 08:01:09;;;;;;;21.90;9.53;;;8.90;99.90;;;;;;5063361;28;20501;-73
2022/11/26 08:03:44;;;;;;;26.40;9.60;;;9.00;99.90;;;;;;5058963;28;20551;-72
2022/11/26 08:06:12;;;;;;;24.30;10.07;;;9.10;99.90;;;;;;5040781;28;20468;-73
2022/11/26 08:08:38;;;;;;;17.63;10.60;;;9.00;99.90;;;;;;5053266;28;20528;-72
2022/11/26 08:11:11;;;;;;;21.80;10.87;;;9.10;99.90;;;;;;5055894;28;20860;-73
2022/11/26 08:13:36;;;;;;;25.60;9.87;;;9.10;99.90;;;;;;5056185;28;20911;-73
2022/11/26 08:16:02;;;;;;;19.37;10.93;;;9.10;99.90;;;;;;5057330;28;20461;-73
2022/11/26 08:18:28;;;;;;;18.70;11.37;;;9.00;99.90;;;;;;5055855;28;20558;-73
2022/11/26 08:20:57;;;;;;;16.13;9.03;;;9.10;99.90;;;;;;5058212;28;20322;-73
2022/11/26 08:23:24;;;;;;;22.43;10.27;;;9.10;99.90;;;;;;5057573;28;20184;-73
2022/11/26 08:25:50;;;;;;;20.50;10.20;;;9.10;99.90;;;;;;5054411;28;20449;-74
2022/11/26 08:28:15;;;;;;;23.33;10.80;;;9.00;99.90;;;;;;5037807;28;21341;-74
2022/11/26 08:30:41;;;;;;;20.43;10.00;;;9.00;99.90;;;;;;5058045;28;20522;-74
2022/11/26 08:33:07;;;;;;;24.57;11.73;;;9.10;99.90;;;;;;5053395;28;20682;-74
2022/11/26 08:35:34;;;;;;;25.43;10.93;;;9.10;99.90;;;;;;5052877;28;21027;-74
2022/11/26 08:38:00;;;;;;;16.03;9.70;;;9.10;99.90;;;;;;5054664;28;20187;-72
2022/11/26 08:40:26;;;;;;;21.70;9.63;;;9.10;99.90;;;;;;5051533;28;20447;-72
2022/11/26 08:42:51;;;;;;;14.93;9.60;;;9.00;99.90;;;;;;5057831;28;20179;-74
2022/11/26 08:45:17;;;;;;;23.83;9.87;;;9.00;99.90;;;;;;5057420;28;20207;-73
2022/11/26 08:47:42;;;;;;;20.50;10.73;;;9.10;99.90;;;;;;5058677;28;20175;-73
2022/11/26 08:50:08;;;;;;;18.27;10.63;;;9.30;99.90;;;;;;5059660;28;20189;-73
2022/11/26 08:52:34;;;;;;;16.00;10.23;;;9.20;99.90;;;;;;5056318;28;20210;-73
2022/11/26 08:54:59;;;;;;;25.43;9.90;;;9.30;99.90;;;;;;5051361;28;20551;-73
2022/11/26 08:57:25;;;;;;;20.03;10.50;;;9.30;99.90;;;;;;5055410;28;20664;-74
2022/11/26 08:59:53;;;;;;;24.83;10.53;;;9.40;99.90;;;;;;5056726;28;20229;-73
2022/11/26 09:02:19;;;;;;;16.47;10.03;;;9.40;99.90;;;;;;5057276;28;20190;-73
2022/11/26 09:04:44;;;;;;;15.40;10.00;;;9.40;99.90;;;;;;5039854;28;20465;-73
2022/11/26 09:07:10;;;;;;;22.90;11.23;;;9.50;99.90;;;;;;5053187;28;20672;-73
2022/11/26 09:09:36;;;;;;;22.07;11.20;;;9.50;99.90;;;;;;5057171;28;20194;-72
2022/11/26 09:12:01;;;;;;;24.50;11.53;;;9.50;99.90;;;;;;5053090;28;20193;-72
2022/11/26 09:14:30;;;;;;;15.43;10.10;;;9.50;99.90;;;;;;5053487;28;20214;-73
2022/11/26 09:16:56;;;;;;;23.30;12.20;;;9.50;99.90;;;;;;5052945;28;20266;-72
2022/11/26 09:19:23;;;;;;;32.23;13.20;;;9.50;99.90;;;;;;5056183;28;20470;-73
2022/11/26 09:21:49;;;;;;;20.63;11.47;;;9.60;99.90;;;;;;5055815;28;20445;-72
2022/11/26 09:24:16;;;;;;;19.93;10.20;;;9.70;99.90;;;;;;5053689;28;20438;-71
2022/11/26 09:26:42;;;;;;;16.50;9.97;;;9.70;99.90;;;;;;5049728;28;20273;-72
2022/11/26 09:29:11;;;;;;;15.43;10.47;;;9.70;99.90;;;;;;5056216;28;20552;-71
2022/11/26 09:31:37;;;;;;;22.97;11.27;;;9.70;99.90;;;;;;5054895;28;20540;-72
2022/11/26 09:34:02;;;;;;;20.40;9.43;;;9.70;99.90;;;;;;5053572;28;20533;-73
2022/11/26 09:36:28;;;;;;;17.50;10.30;;;9.80;99.90;;;;;;5059146;28;20238;-73
2022/11/26 09:38:55;;;;;;;20.33;10.30;;;9.80;99.90;;;;;;5055531;28;20591;-74
2022/11/26 09:41:30;;;;;;;17.73;9.80;;;9.70;99.90;;;;;;5056547;28;20437;-72
2022/11/26 09:43:59;;;;;;;16.60;9.10;;;9.70;99.90;;;;;;5055073;28;20524;-72
2022/11/26 09:46:36;;;;;;;29.10;9.17;;;9.80;99.90;;;;;;5051879;28;20464;-72
2022/11/26 09:49:03;;;;;;;21.60;9.33;;;9.80;99.90;;;;;;5056303;28;20843;-72
2022/11/26 09:51:32;;;;;;;23.37;9.87;;;9.80;99.90;;;;;;5056229;28;20437;-72
2022/11/26 09:54:01;;;;;;;15.37;9.03;;;10.00;99.90;;;;;;5056961;28;20464;-72
2022/11/26 09:56:27;;;;;;;21.70;8.07;;;10.10;99.90;;;;;;5054907;28;20458;-72
2022/11/26 09:59:01;;;;;;;20.83;9.53;;;10.10;99.90;;;;;;5063168;28;20857;-73
2022/11/26 10:01:29;;;;;;;22.13;8.37;;;10.10;99.90;;;;;;5044060;28;20282;-78
2022/11/26 10:03:55;;;;;;;16.33;9.10;;;10.10;99.90;;;;;;5058910;28;20437;-76
2022/11/26 10:06:53;;;;;;;19.10;8.40;;;10.20;99.90;;;;;;5059970;28;20474;-76
2022/11/26 10:09:41;;;;;;;16.93;6.50;;;10.30;99.90;;;;;;5062337;28;20187;-76
2022/11/26 10:12:31;;;;;;;14.57;8.03;;;10.30;99.90;;;;;;5057372;28;20436;-76
2022/11/26 10:15:02;;;;;;;12.10;5.80;;;10.30;99.90;;;;;;5064020;28;20468;-77
2022/11/26 10:17:46;;;;;;;15.50;5.17;;;10.20;99.90;;;;;;5063280;28;20476;-77
2022/11/26 10:20:36;;;;;;;13.03;5.83;;;10.20;99.90;;;;;;5063382;28;20429;-76
2022/11/26 10:23:06;;;;;;;16.43;6.00;;;10.30;99.90;;;;;;5046850;28;20460;-77
2022/11/26 10:25:53;;;;;;;14.43;6.53;;;10.30;99.90;;;;;;5063129;28;20484;-76
2022/11/26 10:28:24;;;;;;;14.40;6.20;;;10.30;99.90;;;;;;5047756;28;20830;-77
2022/11/26 10:30:57;;;;;;;17.67;5.67;;;10.30;99.90;;;;;;5063832;28;20428;-76
2022/11/26 10:33:22;;;;;;;14.77;5.63;;;10.50;99.90;;;;;;5058959;28;20453;-76
2022/11/26 10:35:49;;;;;;;9.30;4.70;;;10.50;99.90;;;;;;5063553;28;20444;-75
2022/11/26 10:38:16;;;;;;;10.93;4.63;;;10.50;99.90;;;;;;5064808;28;20558;-76
2022/11/26 10:40:41;;;;;;;13.10;5.83;;;10.50;99.90;;;;;;5042932;28;20447;-76
2022/11/26 10:43:07;;;;;;;8.63;5.30;;;10.60;99.90;;;;;;5064335;28;20524;-76
2022/11/26 10:45:48;;;;;;;13.60;5.90;;;10.60;99.90;;;;;;5063416;28;20206;-76
2022/11/26 10:48:18;;;;;;;14.20;5.97;;;10.70;99.90;;;;;;5064599;28;20257;-76
2022/11/26 10:51:03;;;;;;;16.13;4.93;;;10.90;99.90;;;;;;5061698;28;20445;-75
2022/11/26 10:53:48;;;;;;;9.93;4.23;;;10.90;99.90;;;;;;5061888;28;20461;-76
2022/11/26 10:56:19;;;;;;;18.07;6.90;;;11.00;99.90;;;;;;5062626;28;20452;-76
2022/11/26 10:58:46;;;;;;;9.20;4.40;;;10.90;99.90;;;;;;5061704;28;20841;-76
2022/11/26 11:01:14;;;;;;;11.87;5.33;;;11.00;99.90;;;;;;5060644;28;20442;-76
2022/11/26 11:04:01;;;;;;;14.30;5.60;;;11.00;99.90;;;;;;5061083;28;20479;-76
2022/11/26 11:06:42;;;;;;;17.67;6.90;;;10.80;99.90;;;;;;5060882;28;20975;-76
2022/11/26 11:09:24;;;;;;;11.13;5.33;;;10.90;99.90;;;;;;5058549;28;20437;-76
2022/11/26 11:12:10;;;;;;;11.90;4.63;;;10.80;99.90;;;;;;5059919;28;20535;-76
2022/11/26 11:14:36;;;;;;;9.97;4.77;;;10.70;99.90;;;;;;5062995;28;20472;-78
2022/11/26 11:17:02;;;;;;;14.80;5.90;;;10.60;99.90;;;;;;5062271;28;20424;-77
2022/11/26 11:19:29;;;;;;;13.33;5.27;;;10.70;99.90;;;;;;5061726;28;20437;-78
2022/11/26 11:21:55;;;;;;;10.00;5.50;;;10.60;99.90;;;;;;5059033;28;20460;-77
2022/11/26 11:24:25;;;;;;;12.27;5.10;;;10.60;99.90;;;;;;5062752;28;20459;-77
2022/11/26 11:26:54;;;;;;;15.57;5.10;;;10.60;99.90;;;;;;5060638;28;20179;-77
2022/11/26 11:29:37;;;;;;;18.60;5.87;;;10.70;99.90;;;;;;5061192;28;20427;-77
2022/11/26 11:32:06;;;;;;;12.80;5.20;;;10.80;99.90;;;;;;5058576;28;20436;-77
2022/11/26 11:34:37;;;;;;;12.07;6.60;;;10.80;99.90;;;;;;5061114;28;20473;-77
2022/11/26 11:37:16;;;;;;;12.00;4.73;;;10.70;99.90;;;;;;5043958;28;21176;-77
2022/11/26 11:39:42;;;;;;;11.30;5.30;;;11.00;99.90;;;;;;5059322;28;20425;-77
2022/11/26 11:42:28;;;;;;;10.87;5.20;;;11.10;99.90;;;;;;5060215;28;20417;-77
2022/11/26 11:44:55;;;;;;;8.63;4.97;;;11.10;99.90;;;;;;5060913;28;20450;-77
2022/11/26 11:47:41;;;;;;;12.07;5.70;;;11.20;99.90;;;;;;5063600;28;20491;-77
2022/11/26 11:50:34;;;;;;;8.17;5.40;;;11.20;99.90;;;;;;5061748;28;20433;-77
2022/11/26 11:53:08;;;;;;;10.23;5.10;;;11.20;99.90;;;;;;5062695;28;20421;-77
2022/11/26 11:56:12;;;;;;;12.83;5.50;;;11.20;99.90;;;;;;5060297;28;20434;-77
2022/11/26 11:58:59;;;;;;;13.13;5.63;;;11.30;99.90;;;;;;5062364;28;20424;-77
2022/11/26 12:01:43;;;;;;;13.80;5.80;;;11.60;99.90;;;;;;5060456;28;20461;-77
2022/11/26 12:04:33;;;;;;;10.20;4.90;;;12.30;99.90;;;;;;5061921;28;20441;-76
2022/11/26 12:07:31;;;;;;;9.80;4.47;;;12.90;99.90;;;;;;5059511;28;20439;-77
2022/11/26 12:10:23;;;;;;;8.93;4.97;;;13.20;99.90;;;;;;5058180;28;20465;-77
2022/11/26 12:12:52;;;;;;;12.10;5.77;;;13.10;99.90;;;;;;5062524;28;20839;-77
2022/11/26 12:15:28;;;;;;;11.80;4.70;;;12.90;99.90;;;;;;5063413;28;20954;-77
2022/11/26 12:18:17;;;;;;;17.33;6.97;;;12.90;99.90;;;;;;5062384;28;20457;-77
2022/11/26 12:20:52;;;;;;;15.90;5.90;;;12.70;99.90;;;;;;5058308;28;20417;-77
2022/11/26 12:23:27;;;;;;;15.47;6.83;;;13.10;99.90;;;;;;5059249;28;20799;-77
2022/11/26 12:26:01;;;;;;;11.97;4.70;;;13.50;99.90;;;;;;5060367;28;20453;-77
2022/11/26 12:28:41;;;;;;;11.77;5.90;;;13.50;99.90;;;;;;5056761;28;20465;-77
2022/11/26 12:31:25;;;;;;;10.87;5.13;;;13.80;99.90;;;;;;5062797;28;20456;-77
2022/11/26 12:34:13;;;;;;;12.07;4.90;;;13.40;99.90;;;;;;5061978;28;20868;-77
2022/11/26 12:36:54;;;;;;;14.47;4.90;;;13.60;99.90;;;;;;5045505;28;20434;-77
2022/11/26 12:39:45;;;;;;;10.70;4.33;;;14.80;99.90;;;;;;5059776;28;20441;-77
2022/11/26 12:42:21;;;;;;;7.43;3.90;;;15.50;99.90;;;;;;5061163;28;20445;-77
2022/11/26 12:44:50;;;;;;;10.33;4.53;;;15.70;99.90;;;;;;5060614;28;20448;-77
2022/11/26 12:47:40;;;;;;;11.90;5.10;;;15.90;99.90;;;;;;5061607;28;20461;-76
2022/11/26 12:50:40;;;;;;;9.83;5.93;;;16.30;99.90;;;;;;5058148;28;20908;-75
2022/11/26 12:53:16;;;;;;;7.83;4.13;;;16.50;99.90;;;;;;5059920;28;20448;-75
2022/11/26 12:56:09;;;;;;;12.10;4.80;;;16.60;99.90;;;;;;5061801;28;20486;-75
2022/11/26 12:58:59;;;;;;;7.47;4.10;;;16.40;99.90;;;;;;5058042;28;20414;-75